sensor_id;sensor_type;location;lat;lon;timestamp;temperature;humidity
52127;DHT22;38120;53.176;6.614;2023-01-04T00:01:05;8.30;99.90
52127;DHT22;38120;53.176;6.614;2023-01-04T00:03:32;8.30;99.90
52127;DHT22;38120;53.176;6.614;2023-01-04T00:06:00;8.20;99.90
52127;DHT22;38120;53.176;6.614;2023-01-04T00:08:27;8.30;99.90
52127;DHT22;38120;53.176;6.614;2023-01-04T00:10:52;8.30;99.90
52127;DHT22;38120;53.176;6.614;2023-01-04T00:13:18;8.20;99.90
52127;DHT22;38120;53.176;6.614;2023-01-04T00:15:43;8.30;99.90
52127;DHT22;38120;53.176;6.614;2023-01-04T00:18:09;8.30;99.90
52127;DHT22;38120;53.176;6.614;2023-01-04T00:20:35;8.30;99.90
52127;DHT22;38120;53.176;6.614;2023-01-04T00:23:00;8.30;99.90
52127;DHT22;38120;53.176;6.614;2023-01-04T00:25:26;8.30;99.90
52127;DHT22;38120;53.176;6.614;2023-01-04T00:27:52;8.30;99.90
52127;DHT22;38120;53.176;6.614;2023-01-04T00:30:18;8.30;99.90
52127;DHT22;38120;53.176;6.614;2023-01-04T00:32:44;8.30;99.90
52127;DHT22;38120;53.176;6.614;2023-01-04T00:35:10;8.30;99.90
52127;DHT22;38120;53.176;6.614;2023-01-04T00:37:36;8.30;99.90
52127;DHT22;38120;53.176;6.614;2023-01-04T00:40:02;8.30;99.90
52127;DHT22;38120;53.176;6.614;2023-01-04T00:42:29;8.20;99.90
52127;DHT22;38120;53.176;6.614;2023-01-04T00:44:54;8.30;99.90
52127;DHT22;38120;53.176;6.614;2023-01-04T00:47:20;8.20;99.90
52127;DHT22;38120;53.176;6.614;2023-01-04T00:49:46;8.10;99.90
52127;DHT22;38120;53.176;6.614;2023-01-04T00:52:12;8.10;99.90
52127;DHT22;38120;53.176;6.614;2023-01-04T00:54:37;8.10;99.90
52127;DHT22;38120;53.176;6.614;2023-01-04T00:57:03;8.10;99.90
52127;DHT22;38120;53.176;6.614;2023-01-04T00:59:29;8.00;99.90
52127;DHT22;38120;53.176;6.614;2023-01-04T01:01:56;8.00;99.90
52127;DHT22;38120;53.176;6.614;2023-01-04T01:04:22;8.00;99.90
52127;DHT22;38120;53.176;6.614;2023-01-04T01:06:49;8.00;99.90
52127;DHT22;38120;53.176;6.614;2023-01-04T01:09:20;8.10;99.90
52127;DHT22;38120;53.176;6.614;2023-01-04T01:11:52;8.00;99.90
52127;DHT22;38120;53.176;6.614;2023-01-04T01:14:21;8.00;99.90
52127;DHT22;38120;53.176;6.614;2023-01-04T01:16:47;8.00;99.90
52127;DHT22;38120;53.176;6.614;2023-01-04T01:19:13;8.00;99.90
52127;DHT22;38120;53.176;6.614;2023-01-04T01:21:39;8.00;99.90
52127;DHT22;38120;53.176;6.614;2023-01-04T01:24:05;8.10;99.90
52127;DHT22;38120;53.176;6.614;2023-01-04T01:26:31;8.10;99.90
52127;DHT22;38120;53.176;6.614;2023-01-04T01:29:00;8.00;99.90
52127;DHT22;38120;53.176;6.614;2023-01-04T01:31:27;8.00;99.90
52127;DHT22;38120;53.176;6.614;2023-01-04T01:33:55;8.00;99.90
52127;DHT22;38120;53.176;6.614;2023-01-04T01:36:24;8.00;99.90
52127;DHT22;38120;53.176;6.614;2023-01-04T01:38:50;8.10;99.90
52127;DHT22;38120;53.176;6.614;2023-01-04T01:46:21;8.10;99.90
52127;DHT22;38120;53.176;6.614;2023-01-04T01:48:48;8.10;99.90
52127;DHT22;38120;53.176;6.614;2023-01-04T01:51:16;8.10;99.90
52127;DHT22;38120;53.176;6.614;2023-01-04T01:53:45;8.00;99.90
52127;DHT22;38120;53.176;6.614;2023-01-04T01:56:16;8.00;99.90
52127;DHT22;38120;53.176;6.614;2023-01-04T01:58:46;8.10;99.90
52127;DHT22;38120;53.176;6.614;2023-01-04T02:01:14;8.00;99.90
52127;DHT22;38120;53.176;6.614;2023-01-04T02:03:42;8.00;99.90
52127;DHT22;38120;53.176;6.614;2023-01-04T02:06:12;8.00;99.90
52127;DHT22;38120;53.176;6.614;2023-01-04T02:08:40;8.00;99.90
52127;DHT22;38120;53.176;6.614;2023-01-04T02:11:07;8.20;99.90
52127;DHT22;38120;53.176;6.614;2023-01-04T02:13:34;8.00;99.90
52127;DHT22;38120;53.176;6.614;2023-01-04T02:38:30;8.10;99.90
52127;DHT22;38120;53.176;6.614;2023-01-04T02:41:20;8.20;99.90
52127;DHT22;38120;53.176;6.614;2023-01-04T02:46:34;8.20;99.90
52127;DHT22;38120;53.176;6.614;2023-01-04T02:49:02;8.20;99.90
52127;DHT22;38120;53.176;6.614;2023-01-04T02:51:46;8.20;99.90
52127;DHT22;38120;53.176;6.614;2023-01-04T02:54:31;8.20;99.90
52127;DHT22;38120;53.176;6.614;2023-01-04T02:57:19;8.20;99.90
52127;DHT22;38120;53.176;6.614;2023-01-04T03:00:03;8.30;99.90
52127;DHT22;38120;53.176;6.614;2023-01-04T03:08:47;8.30;99.90
52127;DHT22;38120;53.176;6.614;2023-01-04T03:11:15;8.40;99.90
52127;DHT22;38120;53.176;6.614;2023-01-04T03:16:34;8.40;99.90
52127;DHT22;38120;53.176;6.614;2023-01-04T03:19:03;8.40;99.90
52127;DHT22;38120;53.176;6.614;2023-01-04T03:21:36;8.60;99.90
52127;DHT22;38120;53.176;6.614;2023-01-04T03:24:05;8.50;99.90
52127;DHT22;38120;53.176;6.614;2023-01-04T03:26:59;8.40;99.90
52127;DHT22;38120;53.176;6.614;2023-01-04T03:30:00;8.50;99.90
52127;DHT22;38120;53.176;6.614;2023-01-04T03:32:58;8.50;99.90
52127;DHT22;38120;53.176;6.614;2023-01-04T03:35:52;8.60;99.90
52127;DHT22;38120;53.176;6.614;2023-01-04T03:38:29;8.60;99.90
52127;DHT22;38120;53.176;6.614;2023-01-04T03:41:26;8.60;99.90
52127;DHT22;38120;53.176;6.614;2023-01-04T03:44:37;8.70;99.90
52127;DHT22;38120;53.176;6.614;2023-01-04T03:47:54;8.70;99.90
52127;DHT22;38120;53.176;6.614;2023-01-04T03:50:50;8.80;99.90
52127;DHT22;38120;53.176;6.614;2023-01-04T03:53:16;8.80;99.90
52127;DHT22;38120;53.176;6.614;2023-01-04T03:55:43;8.90;99.90
52127;DHT22;38120;53.176;6.614;2023-01-04T03:58:10;9.00;99.90
52127;DHT22;38120;53.176;6.614;2023-01-04T04:00:36;9.00;99.90
52127;DHT22;38120;53.176;6.614;2023-01-04T04:03:05;9.10;99.90
52127;DHT22;38120;53.176;6.614;2023-01-04T04:05:35;9.10;99.90
52127;DHT22;38120;53.176;6.614;2023-01-04T04:08:21;9.10;99.90
52127;DHT22;38120;53.176;6.614;2023-01-04T04:10:58;9.20;99.90
52127;DHT22;38120;53.176;6.614;2023-01-04T04:13:49;9.20;99.90
52127;DHT22;38120;53.176;6.614;2023-01-04T04:16:15;9.30;99.90
52127;DHT22;38120;53.176;6.614;2023-01-04T04:18:41;9.30;99.90
52127;DHT22;38120;53.176;6.614;2023-01-04T04:21:07;9.40;99.90
52127;DHT22;38120;53.176;6.614;2023-01-04T04:23:33;9.40;99.90
52127;DHT22;38120;53.176;6.614;2023-01-04T04:25:59;9.50;99.90
52127;DHT22;38120;53.176;6.614;2023-01-04T04:28:24;9.50;99.90
52127;DHT22;38120;53.176;6.614;2023-01-04T04:30:51;9.60;99.90
52127;DHT22;38120;53.176;6.614;2023-01-04T04:33:17;9.50;99.90
52127;DHT22;38120;53.176;6.614;2023-01-04T04:35:42;9.60;99.90
52127;DHT22;38120;53.176;6.614;2023-01-04T04:38:08;9.60;99.90
52127;DHT22;38120;53.176;6.614;2023-01-04T04:40:34;9.70;99.90
52127;DHT22;38120;53.176;6.614;2023-01-04T04:43:18;9.80;99.90
52127;DHT22;38120;53.176;6.614;2023-01-04T04:45:44;9.80;99.90
52127;DHT22;38120;53.176;6.614;2023-01-04T04:48:09;9.90;99.90
52127;DHT22;38120;53.176;6.614;2023-01-04T04:50:35;9.90;99.90
52127;DHT22;38120;53.176;6.614;2023-01-04T04:53:01;9.90;99.90
52127;DHT22;38120;53.176;6.614;2023-01-04T04:55:27;10.00;99.90
52127;DHT22;38120;53.176;6.614;2023-01-04T04:57:52;10.10;99.90
52127;DHT22;38120;53.176;6.614;2023-01-04T05:00:18;10.10;99.90
52127;DHT22;38120;53.176;6.614;2023-01-04T05:02:50;10.10;99.90
52127;DHT22;38120;53.176;6.614;2023-01-04T05:05:16;10.10;99.90
52127;DHT22;38120;53.176;6.614;2023-01-04T05:07:41;10.20;99.90
52127;DHT22;38120;53.176;6.614;2023-01-04T05:10:07;10.30;99.90
52127;DHT22;38120;53.176;6.614;2023-01-04T05:12:33;10.20;99.90
52127;DHT22;38120;53.176;6.614;2023-01-04T05:15:17;10.30;99.90
52127;DHT22;38120;53.176;6.614;2023-01-04T05:17:43;10.30;99.90
52127;DHT22;38120;53.176;6.614;2023-01-04T05:20:09;10.30;99.90
52127;DHT22;38120;53.176;6.614;2023-01-04T05:22:35;10.30;99.90
52127;DHT22;38120;53.176;6.614;2023-01-04T05:25:00;10.40;99.90
52127;DHT22;38120;53.176;6.614;2023-01-04T05:27:26;10.40;99.90
52127;DHT22;38120;53.176;6.614;2023-01-04T05:29:52;10.40;99.90
52127;DHT22;38120;53.176;6.614;2023-01-04T05:32:36;10.40;99.90
52127;DHT22;38120;53.176;6.614;2023-01-04T05:35:01;10.40;99.90
52127;DHT22;38120;53.176;6.614;2023-01-04T05:37:27;10.60;99.90
52127;DHT22;38120;53.176;6.614;2023-01-04T05:39:53;10.60;99.90
52127;DHT22;38120;53.176;6.614;2023-01-04T05:42:18;10.60;99.90
52127;DHT22;38120;53.176;6.614;2023-01-04T05:44:51;10.50;99.90
52127;DHT22;38120;53.176;6.614;2023-01-04T05:47:16;10.60;99.90
52127;DHT22;38120;53.176;6.614;2023-01-04T05:49:42;10.60;99.90
52127;DHT22;38120;53.176;6.614;2023-01-04T05:52:08;10.60;99.90
52127;DHT22;38120;53.176;6.614;2023-01-04T05:54:34;10.60;99.90
52127;DHT22;38120;53.176;6.614;2023-01-04T05:57:00;10.60;99.90
52127;DHT22;38120;53.176;6.614;2023-01-04T05:59:25;10.60;99.90
52127;DHT22;38120;53.176;6.614;2023-01-04T06:01:51;10.60;99.90
52127;DHT22;38120;53.176;6.614;2023-01-04T06:04:17;10.50;99.90
52127;DHT22;38120;53.176;6.614;2023-01-04T06:06:42;10.50;99.90
52127;DHT22;38120;53.176;6.614;2023-01-04T06:09:08;10.50;99.90
52127;DHT22;38120;53.176;6.614;2023-01-04T06:11:34;10.50;99.90
52127;DHT22;38120;53.176;6.614;2023-01-04T06:13:59;10.60;99.90
52127;DHT22;38120;53.176;6.614;2023-01-04T06:16:25;10.60;99.90
52127;DHT22;38120;53.176;6.614;2023-01-04T06:18:51;10.60;99.90
52127;DHT22;38120;53.176;6.614;2023-01-04T06:21:16;10.70;99.90
52127;DHT22;38120;53.176;6.614;2023-01-04T06:23:42;10.60;99.90
52127;DHT22;38120;53.176;6.614;2023-01-04T06:26:08;10.60;99.90
52127;DHT22;38120;53.176;6.614;2023-01-04T06:28:33;10.60;99.90
52127;DHT22;38120;53.176;6.614;2023-01-04T06:31:06;10.60;99.90
52127;DHT22;38120;53.176;6.614;2023-01-04T06:33:32;10.70;99.90
52127;DHT22;38120;53.176;6.614;2023-01-04T06:35:59;10.60;99.90
52127;DHT22;38120;53.176;6.614;2023-01-04T06:38:25;10.70;99.90
52127;DHT22;38120;53.176;6.614;2023-01-04T06:40:51;10.70;99.90
52127;DHT22;38120;53.176;6.614;2023-01-04T06:43:17;10.70;99.90
52127;DHT22;38120;53.176;6.614;2023-01-04T06:45:43;10.70;99.90
52127;DHT22;38120;53.176;6.614;2023-01-04T06:48:09;10.70;99.90
52127;DHT22;38120;53.176;6.614;2023-01-04T06:50:34;10.70;99.90
52127;DHT22;38120;53.176;6.614;2023-01-04T06:53:00;10.70;99.90
52127;DHT22;38120;53.176;6.614;2023-01-04T06:55:26;10.70;99.90
52127;DHT22;38120;53.176;6.614;2023-01-04T06:57:55;10.70;99.90
52127;DHT22;38120;53.176;6.614;2023-01-04T07:00:20;10.80;99.90
52127;DHT22;38120;53.176;6.614;2023-01-04T07:02:48;10.70;99.90
52127;DHT22;38120;53.176;6.614;2023-01-04T07:05:14;10.70;99.90
52127;DHT22;38120;53.176;6.614;2023-01-04T07:07:40;10.80;99.90
52127;DHT22;38120;53.176;6.614;2023-01-04T07:10:06;10.70;99.90
52127;DHT22;38120;53.176;6.614;2023-01-04T07:12:32;10.80;99.90
52127;DHT22;38120;53.176;6.614;2023-01-04T07:14:58;10.80;99.90
52127;DHT22;38120;53.176;6.614;2023-01-04T07:17:24;10.80;99.90
52127;DHT22;38120;53.176;6.614;2023-01-04T07:19:50;10.80;99.90
52127;DHT22;38120;53.176;6.614;2023-01-04T07:22:16;10.90;99.90
52127;DHT22;38120;53.176;6.614;2023-01-04T07:24:45;10.80;99.90
52127;DHT22;38120;53.176;6.614;2023-01-04T07:27:14;10.90;99.90
52127;DHT22;38120;53.176;6.614;2023-01-04T07:29:39;10.90;99.90
52127;DHT22;38120;53.176;6.614;2023-01-04T07:32:09;10.90;99.90
52127;DHT22;38120;53.176;6.614;2023-01-04T07:34:36;10.90;99.90
52127;DHT22;38120;53.176;6.614;2023-01-04T07:37:02;11.00;99.90
52127;DHT22;38120;53.176;6.614;2023-01-04T07:39:28;11.00;99.90
52127;DHT22;38120;53.176;6.614;2023-01-04T07:41:53;11.00;99.90
52127;DHT22;38120;53.176;6.614;2023-01-04T07:44:19;11.00;99.90
52127;DHT22;38120;53.176;6.614;2023-01-04T07:46:49;11.00;99.90
52127;DHT22;38120;53.176;6.614;2023-01-04T07:49:16;11.10;99.90
52127;DHT22;38120;53.176;6.614;2023-01-04T07:51:48;10.90;99.90
52127;DHT22;38120;53.176;6.614;2023-01-04T07:54:15;11.00;99.90
52127;DHT22;38120;53.176;6.614;2023-01-04T07:56:42;11.00;99.90
52127;DHT22;38120;53.176;6.614;2023-01-04T07:59:09;11.00;99.90
52127;DHT22;38120;53.176;6.614;2023-01-04T08:01:36;11.00;99.90
52127;DHT22;38120;53.176;6.614;2023-01-04T08:04:06;11.00;99.90
52127;DHT22;38120;53.176;6.614;2023-01-04T08:06:32;11.00;99.90
52127;DHT22;38120;53.176;6.614;2023-01-04T08:08:58;10.90;99.90
52127;DHT22;38120;53.176;6.614;2023-01-04T08:11:24;11.00;99.90
52127;DHT22;38120;53.176;6.614;2023-01-04T08:13:50;11.00;99.90
52127;DHT22;38120;53.176;6.614;2023-01-04T08:16:29;11.00;99.90
52127;DHT22;38120;53.176;6.614;2023-01-04T08:19:00;11.00;99.90
52127;DHT22;38120;53.176;6.614;2023-01-04T08:21:27;11.00;99.90
52127;DHT22;38120;53.176;6.614;2023-01-04T08:23:54;11.00;99.90
52127;DHT22;38120;53.176;6.614;2023-01-04T08:26:20;11.10;99.90
52127;DHT22;38120;53.176;6.614;2023-01-04T08:28:47;11.00;99.90
52127;DHT22;38120;53.176;6.614;2023-01-04T08:31:19;11.00;99.90
52127;DHT22;38120;53.176;6.614;2023-01-04T08:33:45;11.00;99.90
52127;DHT22;38120;53.176;6.614;2023-01-04T08:36:26;11.00;99.90
52127;DHT22;38120;53.176;6.614;2023-01-04T08:38:54;11.00;99.90
52127;DHT22;38120;53.176;6.614;2023-01-04T08:41:20;11.00;99.90
52127;DHT22;38120;53.176;6.614;2023-01-04T08:43:46;11.00;99.90
52127;DHT22;38120;53.176;6.614;2023-01-04T08:46:13;11.10;99.90
52127;DHT22;38120;53.176;6.614;2023-01-04T08:48:39;11.10;99.90
52127;DHT22;38120;53.176;6.614;2023-01-04T08:51:23;11.10;99.90
52127;DHT22;38120;53.176;6.614;2023-01-04T08:53:49;11.00;99.90
52127;DHT22;38120;53.176;6.614;2023-01-04T08:56:15;11.10;99.90
52127;DHT22;38120;53.176;6.614;2023-01-04T08:58:40;11.10;99.90
52127;DHT22;38120;53.176;6.614;2023-01-04T09:01:08;11.10;99.90
52127;DHT22;38120;53.176;6.614;2023-01-04T09:03:37;11.10;99.90
52127;DHT22;38120;53.176;6.614;2023-01-04T09:06:11;11.10;99.90
52127;DHT22;38120;53.176;6.614;2023-01-04T09:08:38;11.10;99.90
52127;DHT22;38120;53.176;6.614;2023-01-04T09:11:06;11.10;99.90
52127;DHT22;38120;53.176;6.614;2023-01-04T09:13:35;11.10;99.90
52127;DHT22;38120;53.176;6.614;2023-01-04T09:16:02;11.20;99.90
52127;DHT22;38120;53.176;6.614;2023-01-04T09:18:29;11.10;99.90
52127;DHT22;38120;53.176;6.614;2023-01-04T09:21:13;11.20;99.90
52127;DHT22;38120;53.176;6.614;2023-01-04T09:23:39;11.10;99.90
52127;DHT22;38120;53.176;6.614;2023-01-04T09:26:14;11.20;99.90
52127;DHT22;38120;53.176;6.614;2023-01-04T09:28:40;11.20;99.90
52127;DHT22;38120;53.176;6.614;2023-01-04T09:31:07;11.20;99.90
52127;DHT22;38120;53.176;6.614;2023-01-04T09:33:33;11.20;99.90
52127;DHT22;38120;53.176;6.614;2023-01-04T09:36:03;11.20;99.90
52127;DHT22;38120;53.176;6.614;2023-01-04T09:38:31;11.20;99.90
52127;DHT22;38120;53.176;6.614;2023-01-04T09:41:03;11.20;99.90
52127;DHT22;38120;53.176;6.614;2023-01-04T09:43:37;11.20;99.90
52127;DHT22;38120;53.176;6.614;2023-01-04T09:46:08;11.20;99.90
52127;DHT22;38120;53.176;6.614;2023-01-04T09:48:35;11.20;99.90
52127;DHT22;38120;53.176;6.614;2023-01-04T09:51:06;11.20;99.90
52127;DHT22;38120;53.176;6.614;2023-01-04T09:54:03;11.20;99.90
52127;DHT22;38120;53.176;6.614;2023-01-04T09:56:33;11.20;99.90
52127;DHT22;38120;53.176;6.614;2023-01-04T09:59:06;11.30;99.90
52127;DHT22;38120;53.176;6.614;2023-01-04T10:01:48;11.30;99.90
52127;DHT22;38120;53.176;6.614;2023-01-04T10:04:43;11.30;99.90
52127;DHT22;38120;53.176;6.614;2023-01-04T10:07:26;11.40;99.90
52127;DHT22;38120;53.176;6.614;2023-01-04T10:09:53;11.40;99.90
52127;DHT22;38120;53.176;6.614;2023-01-04T10:12:40;11.40;99.90
52127;DHT22;38120;53.176;6.614;2023-01-04T10:15:33;11.40;99.90
52127;DHT22;38120;53.176;6.614;2023-01-04T10:18:14;11.40;99.90
52127;DHT22;38120;53.176;6.614;2023-01-04T10:20:55;11.50;99.90
52127;DHT22;38120;53.176;6.614;2023-01-04T10:26:12;11.60;99.90
52127;DHT22;38120;53.176;6.614;2023-01-04T10:31:43;11.60;99.90
52127;DHT22;38120;53.176;6.614;2023-01-04T10:36:39;11.70;99.90
52127;DHT22;38120;53.176;6.614;2023-01-04T10:39:14;11.70;99.90
52127;DHT22;38120;53.176;6.614;2023-01-04T10:42:11;11.70;99.90
52127;DHT22;38120;53.176;6.614;2023-01-04T10:47:43;11.70;99.90
52127;DHT22;38120;53.176;6.614;2023-01-04T10:53:02;11.80;99.90
52127;DHT22;38120;53.176;6.614;2023-01-04T10:55:35;11.80;99.90
52127;DHT22;38120;53.176;6.614;2023-01-04T11:01:15;11.80;99.90
52127;DHT22;38120;53.176;6.614;2023-01-04T11:03:50;11.90;99.90
52127;DHT22;38120;53.176;6.614;2023-01-04T11:06:21;11.90;99.90
52127;DHT22;38120;53.176;6.614;2023-01-04T11:09:03;12.00;99.90
52127;DHT22;38120;53.176;6.614;2023-01-04T11:11:49;12.00;99.90
52127;DHT22;38120;53.176;6.614;2023-01-04T11:14:16;12.00;99.90
52127;DHT22;38120;53.176;6.614;2023-01-04T11:16:48;12.00;99.90
52127;DHT22;38120;53.176;6.614;2023-01-04T11:19:15;12.00;99.90
52127;DHT22;38120;53.176;6.614;2023-01-04T11:21:52;12.90;99.90
52127;DHT22;38120;53.176;6.614;2023-01-04T11:24:22;12.10;99.90
52127;DHT22;38120;53.176;6.614;2023-01-04T11:26:49;12.10;99.90
52127;DHT22;38120;53.176;6.614;2023-01-04T11:29:31;12.10;99.90
52127;DHT22;38120;53.176;6.614;2023-01-04T11:32:01;12.10;99.90
52127;DHT22;38120;53.176;6.614;2023-01-04T11:35:00;12.00;99.90
52127;DHT22;38120;53.176;6.614;2023-01-04T11:39:53;11.90;99.90
52127;DHT22;38120;53.176;6.614;2023-01-04T11:42:35;11.90;99.90
52127;DHT22;38120;53.176;6.614;2023-01-04T11:45:00;11.80;99.90
52127;DHT22;38120;53.176;6.614;2023-01-04T11:47:26;11.80;99.90
52127;DHT22;38120;53.176;6.614;2023-01-04T11:49:55;11.80;99.90
52127;DHT22;38120;53.176;6.614;2023-01-04T11:54:52;11.80;99.90
52127;DHT22;38120;53.176;6.614;2023-01-04T11:57:21;11.80;99.90
52127;DHT22;38120;53.176;6.614;2023-01-04T12:00:07;11.80;99.90
52127;DHT22;38120;53.176;6.614;2023-01-04T12:02:33;11.90;99.90
52127;DHT22;38120;53.176;6.614;2023-01-04T12:04:59;11.80;99.90
52127;DHT22;38120;53.176;6.614;2023-01-04T12:09:55;11.90;99.90
52127;DHT22;38120;53.176;6.614;2023-01-04T12:12:23;11.90;99.90
52127;DHT22;38120;53.176;6.614;2023-01-04T12:14:51;11.90;99.90
52127;DHT22;38120;53.176;6.614;2023-01-04T12:17:41;11.90;99.90
52127;DHT22;38120;53.176;6.614;2023-01-04T12:20:19;11.90;99.90
52127;DHT22;38120;53.176;6.614;2023-01-04T12:22:46;11.90;99.90
52127;DHT22;38120;53.176;6.614;2023-01-04T12:25:37;11.90;99.90
52127;DHT22;38120;53.176;6.614;2023-01-04T12:28:04;11.90;99.90
52127;DHT22;38120;53.176;6.614;2023-01-04T12:36:11;12.10;99.90
52127;DHT22;38120;53.176;6.614;2023-01-04T12:38:57;12.00;99.90
52127;DHT22;38120;53.176;6.614;2023-01-04T12:50:06;12.10;99.90
52127;DHT22;38120;53.176;6.614;2023-01-04T12:52:56;12.10;99.90
52127;DHT22;38120;53.176;6.614;2023-01-04T12:55:23;12.10;99.90
52127;DHT22;38120;53.176;6.614;2023-01-04T12:57:49;12.10;99.90
52127;DHT22;38120;53.176;6.614;2023-01-04T13:00:15;12.10;99.90
52127;DHT22;38120;53.176;6.614;2023-01-04T13:05:32;12.00;99.90
52127;DHT22;38120;53.176;6.614;2023-01-04T13:08:00;12.10;99.90
52127;DHT22;38120;53.176;6.614;2023-01-04T13:18:55;12.00;99.90
52127;DHT22;38120;53.176;6.614;2023-01-04T13:21:31;12.00;99.90
52127;DHT22;38120;53.176;6.614;2023-01-04T13:26:52;12.00;99.90
52127;DHT22;38120;53.176;6.614;2023-01-04T13:29:27;12.00;99.90
52127;DHT22;38120;53.176;6.614;2023-01-04T13:32:42;12.00;99.90
52127;DHT22;38120;53.176;6.614;2023-01-04T13:40:25;12.10;99.90
52127;DHT22;38120;53.176;6.614;2023-01-04T13:43:04;12.10;99.90
52127;DHT22;38120;53.176;6.614;2023-01-04T13:46:00;12.10;99.90
52127;DHT22;38120;53.176;6.614;2023-01-04T13:48:38;12.00;99.90
52127;DHT22;38120;53.176;6.614;2023-01-04T13:51:25;12.00;99.90
52127;DHT22;38120;53.176;6.614;2023-01-04T13:54:01;12.10;99.90
52127;DHT22;38120;53.176;6.614;2023-01-04T13:56:30;12.10;99.90
52127;DHT22;38120;53.176;6.614;2023-01-04T13:58:56;12.10;99.90
52127;DHT22;38120;53.176;6.614;2023-01-04T14:06:29;12.10;99.90
52127;DHT22;38120;53.176;6.614;2023-01-04T14:09:06;12.10;99.90
52127;DHT22;38120;53.176;6.614;2023-01-04T14:14:30;12.10;99.90
52127;DHT22;38120;53.176;6.614;2023-01-04T14:17:09;12.10;99.90
52127;DHT22;38120;53.176;6.614;2023-01-04T14:19:50;12.10;99.90
52127;DHT22;38120;53.176;6.614;2023-01-04T14:24:46;12.10;99.90
52127;DHT22;38120;53.176;6.614;2023-01-04T14:27:48;12.10;99.90
52127;DHT22;38120;53.176;6.614;2023-01-04T14:35:18;12.00;99.90
52127;DHT22;38120;53.176;6.614;2023-01-04T14:37:44;12.00;99.90
52127;DHT22;38120;53.176;6.614;2023-01-04T14:40:14;12.00;99.90
52127;DHT22;38120;53.176;6.614;2023-01-04T14:42:40;12.00;99.90
52127;DHT22;38120;53.176;6.614;2023-01-04T14:45:13;12.00;99.90
52127;DHT22;38120;53.176;6.614;2023-01-04T14:47:38;12.00;99.90
52127;DHT22;38120;53.176;6.614;2023-01-04T14:50:07;11.90;99.90
52127;DHT22;38120;53.176;6.614;2023-01-04T14:52:33;11.90;99.90
52127;DHT22;38120;53.176;6.614;2023-01-04T14:54:59;12.00;99.90
52127;DHT22;38120;53.176;6.614;2023-01-04T14:57:32;11.90;99.90
52127;DHT22;38120;53.176;6.614;2023-01-04T15:00:00;12.00;99.90
52127;DHT22;38120;53.176;6.614;2023-01-04T15:02:25;12.80;99.90
52127;DHT22;38120;53.176;6.614;2023-01-04T15:04:54;11.90;99.90
52127;DHT22;38120;53.176;6.614;2023-01-04T15:07:35;11.80;99.90
52127;DHT22;38120;53.176;6.614;2023-01-04T15:10:03;11.80;99.90
52127;DHT22;38120;53.176;6.614;2023-01-04T15:12:29;11.80;99.90
52127;DHT22;38120;53.176;6.614;2023-01-04T15:14:55;11.80;99.90
52127;DHT22;38120;53.176;6.614;2023-01-04T15:17:21;11.80;99.90
52127;DHT22;38120;53.176;6.614;2023-01-04T15:19:46;11.80;99.90
52127;DHT22;38120;53.176;6.614;2023-01-04T15:22:12;11.80;99.90
52127;DHT22;38120;53.176;6.614;2023-01-04T15:24:38;11.80;99.90
52127;DHT22;38120;53.176;6.614;2023-01-04T15:27:03;11.80;99.90
52127;DHT22;38120;53.176;6.614;2023-01-04T15:29:29;11.70;99.90
52127;DHT22;38120;53.176;6.614;2023-01-04T15:31:55;11.80;99.90
52127;DHT22;38120;53.176;6.614;2023-01-04T15:34:20;11.70;99.90
52127;DHT22;38120;53.176;6.614;2023-01-04T15:36:50;11.70;99.90
52127;DHT22;38120;53.176;6.614;2023-01-04T15:39:16;11.70;99.90
52127;DHT22;38120;53.176;6.614;2023-01-04T15:41:41;11.70;99.90
52127;DHT22;38120;53.176;6.614;2023-01-04T15:44:26;11.80;99.90
52127;DHT22;38120;53.176;6.614;2023-01-04T15:46:52;11.70;99.90
52127;DHT22;38120;53.176;6.614;2023-01-04T15:49:18;11.70;99.90
52127;DHT22;38120;53.176;6.614;2023-01-04T15:51:45;11.70;99.90
52127;DHT22;38120;53.176;6.614;2023-01-04T15:54:11;11.80;99.90
52127;DHT22;38120;53.176;6.614;2023-01-04T15:56:37;11.70;99.90
52127;DHT22;38120;53.176;6.614;2023-01-04T15:59:03;11.70;99.90
52127;DHT22;38120;53.176;6.614;2023-01-04T16:01:29;11.80;99.90
52127;DHT22;38120;53.176;6.614;2023-01-04T16:03:54;11.70;99.90
52127;DHT22;38120;53.176;6.614;2023-01-04T16:06:21;11.70;99.90
52127;DHT22;38120;53.176;6.614;2023-01-04T16:08:47;11.70;99.90
52127;DHT22;38120;53.176;6.614;2023-01-04T16:11:16;11.70;99.90
52127;DHT22;38120;53.176;6.614;2023-01-04T16:13:43;11.60;99.90
52127;DHT22;38120;53.176;6.614;2023-01-04T16:16:10;11.70;99.90
52127;DHT22;38120;53.176;6.614;2023-01-04T16:18:36;11.60;99.90
52127;DHT22;38120;53.176;6.614;2023-01-04T16:21:07;11.70;99.90
52127;DHT22;38120;53.176;6.614;2023-01-04T16:23:34;11.70;99.90
52127;DHT22;38120;53.176;6.614;2023-01-04T16:26:08;11.60;99.90
52127;DHT22;38120;53.176;6.614;2023-01-04T16:28:35;11.60;99.90
52127;DHT22;38120;53.176;6.614;2023-01-04T16:31:01;11.60;99.90
52127;DHT22;38120;53.176;6.614;2023-01-04T16:33:28;11.50;99.90
52127;DHT22;38120;53.176;6.614;2023-01-04T16:36:02;11.50;99.90
52127;DHT22;38120;53.176;6.614;2023-01-04T16:38:28;11.40;99.90
52127;DHT22;38120;53.176;6.614;2023-01-04T16:40:58;11.50;99.90
52127;DHT22;38120;53.176;6.614;2023-01-04T16:43:24;11.40;99.90
52127;DHT22;38120;53.176;6.614;2023-01-04T16:45:50;11.40;99.90
52127;DHT22;38120;53.176;6.614;2023-01-04T16:48:18;11.40;99.90
52127;DHT22;38120;53.176;6.614;2023-01-04T16:50:43;11.30;99.90
52127;DHT22;38120;53.176;6.614;2023-01-04T16:53:09;11.30;99.90
52127;DHT22;38120;53.176;6.614;2023-01-04T16:55:35;11.20;99.90
52127;DHT22;38120;53.176;6.614;2023-01-04T16:58:00;11.20;99.90
52127;DHT22;38120;53.176;6.614;2023-01-04T17:00:26;11.20;99.90
52127;DHT22;38120;53.176;6.614;2023-01-04T17:02:52;11.20;99.90
52127;DHT22;38120;53.176;6.614;2023-01-04T17:05:17;11.20;99.90
52127;DHT22;38120;53.176;6.614;2023-01-04T17:07:43;11.20;99.90
52127;DHT22;38120;53.176;6.614;2023-01-04T17:10:09;11.20;99.90
52127;DHT22;38120;53.176;6.614;2023-01-04T17:12:34;11.30;99.90
52127;DHT22;38120;53.176;6.614;2023-01-04T17:15:00;11.20;99.90
52127;DHT22;38120;53.176;6.614;2023-01-04T17:17:26;11.20;99.90
52127;DHT22;38120;53.176;6.614;2023-01-04T17:19:52;11.20;99.90
52127;DHT22;38120;53.176;6.614;2023-01-04T17:22:19;11.10;99.90
52127;DHT22;38120;53.176;6.614;2023-01-04T17:24:45;11.10;99.90
52127;DHT22;38120;53.176;6.614;2023-01-04T17:27:10;11.00;99.90
52127;DHT22;38120;53.176;6.614;2023-01-04T17:29:36;11.00;99.90
52127;DHT22;38120;53.176;6.614;2023-01-04T17:32:02;11.00;99.90
52127;DHT22;38120;53.176;6.614;2023-01-04T17:34:27;11.00;99.90
52127;DHT22;38120;53.176;6.614;2023-01-04T17:36:53;11.00;99.90
52127;DHT22;38120;53.176;6.614;2023-01-04T17:39:19;11.00;99.90
52127;DHT22;38120;53.176;6.614;2023-01-04T17:41:45;11.00;99.90
52127;DHT22;38120;53.176;6.614;2023-01-04T17:44:10;11.00;99.90
52127;DHT22;38120;53.176;6.614;2023-01-04T17:46:37;11.00;99.90